sensor_id;sensor_type;location;lat;lon;timestamp;pressure;altitude;pressure_sealevel;temperature;humidity
19600;BME280;9947;57.722;12.012;2023-03-25T00:01:17;98739.25;;;5.63;100.00
19600;BME280;9947;57.722;12.012;2023-03-25T00:03:51;98751.69;;;5.64;100.00
19600;BME280;9947;57.722;12.012;2023-03-25T00:06:18;98740.13;;;5.63;100.00
19600;BME280;9947;57.722;12.012;2023-03-25T00:08:45;98745.75;;;5.60;100.00
19600;BME280;9947;57.722;12.012;2023-03-25T00:11:14;98731.19;;;5.53;100.00
19600;BME280;9947;57.722;12.012;2023-03-25T00:13:41;98727.53;;;5.54;100.00
19600;BME280;9947;57.722;12.012;2023-03-25T00:16:13;98725.41;;;5.48;100.00
19600;BME280;9947;57.722;12.012;2023-03-25T00:18:41;98724.28;;;5.50;100.00
19600;BME280;9947;57.722;12.012;2023-03-25T00:21:15;98728.94;;;5.48;100.00
19600;BME280;9947;57.722;12.012;2023-03-25T00:23:43;98723.69;;;5.47;100.00
19600;BME280;9947;57.722;12.012;2023-03-25T00:26:18;98732.88;;;5.54;100.00
19600;BME280;9947;57.722;12.012;2023-03-25T00:28:45;98730.63;;;5.49;100.00
19600;BME280;9947;57.722;12.012;2023-03-25T00:31:13;98718.19;;;5.48;100.00
19600;BME280;9947;57.722;12.012;2023-03-25T00:33:49;98710.31;;;5.47;100.00
19600;BME280;9947;57.722;12.012;2023-03-25T00:36:16;98709.41;;;5.46;100.00
19600;BME280;9947;57.722;12.012;2023-03-25T00:38:47;98720.69;;;5.40;100.00
19600;BME280;9947;57.722;12.012;2023-03-25T00:41:18;98713.34;;;5.42;100.00
19600;BME280;9947;57.722;12.012;2023-03-25T00:43:51;98711.66;;;5.41;100.00
19600;BME280;9947;57.722;12.012;2023-03-25T00:46:18;98716.88;;;5.43;100.00
19600;BME280;9947;57.722;12.012;2023-03-25T00:48:47;98703.50;;;5.43;100.00
19600;BME280;9947;57.722;12.012;2023-03-25T00:51:17;98701.38;;;5.46;100.00
19600;BME280;9947;57.722;12.012;2023-03-25T00:53:46;98708.56;;;5.46;100.00
19600;BME280;9947;57.722;12.012;2023-03-25T00:56:15;98705.53;;;5.50;100.00
19600;BME280;9947;57.722;12.012;2023-03-25T00:58:43;98710.59;;;5.53;100.00
19600;BME280;9947;57.722;12.012;2023-03-25T01:01:25;98714.84;;;5.56;100.00
19600;BME280;9947;57.722;12.012;2023-03-25T01:03:53;98707.38;;;5.60;100.00
19600;BME280;9947;57.722;12.012;2023-03-25T01:06:24;98709.91;;;5.61;100.00
19600;BME280;9947;57.722;12.012;2023-03-25T01:08:54;98696.38;;;5.63;100.00
19600;BME280;9947;57.722;12.012;2023-03-25T01:11:24;98707.66;;;5.66;100.00
19600;BME280;9947;57.722;12.012;2023-03-25T01:13:56;98707.09;;;5.63;100.00
19600;BME280;9947;57.722;12.012;2023-03-25T01:16:24;98701.72;;;5.63;100.00
19600;BME280;9947;57.722;12.012;2023-03-25T01:18:52;98714.28;;;5.62;100.00
19600;BME280;9947;57.722;12.012;2023-03-25T01:21:22;98716.13;;;5.62;100.00
19600;BME280;9947;57.722;12.012;2023-03-25T01:23:49;98704.41;;;5.63;100.00
19600;BME280;9947;57.722;12.012;2023-03-25T01:26:18;98705.25;;;5.63;100.00
19600;BME280;9947;57.722;12.012;2023-03-25T01:28:45;98696.25;;;5.64;100.00
19600;BME280;9947;57.722;12.012;2023-03-25T01:31:14;98698.34;;;5.61;100.00
19600;BME280;9947;57.722;12.012;2023-03-25T01:33:51;98689.47;;;5.60;100.00
19600;BME280;9947;57.722;12.012;2023-03-25T01:36:18;98694.97;;;5.58;100.00
19600;BME280;9947;57.722;12.012;2023-03-25T01:38:51;98689.59;;;5.58;100.00
19600;BME280;9947;57.722;12.012;2023-03-25T01:41:23;98694.69;;;5.62;100.00
19600;BME280;9947;57.722;12.012;2023-03-25T01:44:04;98698.22;;;5.62;100.00
19600;BME280;9947;57.722;12.012;2023-03-25T01:46:33;98691.00;;;5.63;100.00
19600;BME280;9947;57.722;12.012;2023-03-25T01:49:02;98690.31;;;5.61;100.00
19600;BME280;9947;57.722;12.012;2023-03-25T01:51:33;98687.22;;;5.65;100.00
19600;BME280;9947;57.722;12.012;2023-03-25T01:54:04;98688.06;;;5.66;100.00
19600;BME280;9947;57.722;12.012;2023-03-25T01:56:34;98696.66;;;5.60;100.00
19600;BME280;9947;57.722;12.012;2023-03-25T01:59:05;98686.06;;;5.58;100.00
19600;BME280;9947;57.722;12.012;2023-03-25T02:01:36;98683.81;;;5.63;100.00
19600;BME280;9947;57.722;12.012;2023-03-25T02:04:05;98698.50;;;5.59;100.00
19600;BME280;9947;57.722;12.012;2023-03-25T02:06:40;98694.09;;;5.58;100.00
19600;BME280;9947;57.722;12.012;2023-03-25T02:09:09;98684.81;;;5.62;100.00
19600;BME280;9947;57.722;12.012;2023-03-25T02:11:37;98672.53;;;5.60;100.00
19600;BME280;9947;57.722;12.012;2023-03-25T02:14:06;98680.28;;;5.63;100.00
19600;BME280;9947;57.722;12.012;2023-03-25T02:16:44;98674.78;;;5.64;100.00
19600;BME280;9947;57.722;12.012;2023-03-25T02:22:54;98673.38;;;5.60;100.00
19600;BME280;9947;57.722;12.012;2023-03-25T02:25:46;98653.63;;;5.61;100.00
19600;BME280;9947;57.722;12.012;2023-03-25T02:28:22;98649.13;;;5.62;100.00
19600;BME280;9947;57.722;12.012;2023-03-25T02:31:09;98646.44;;;5.62;100.00
19600;BME280;9947;57.722;12.012;2023-03-25T02:33:59;98656.31;;;5.61;100.00
19600;BME280;9947;57.722;12.012;2023-03-25T02:37:00;98659.97;;;5.60;100.00
19600;BME280;9947;57.722;12.012;2023-03-25T02:39:39;98654.91;;;5.67;100.00
19600;BME280;9947;57.722;12.012;2023-03-25T02:42:13;98645.03;;;5.67;100.00
19600;BME280;9947;57.722;12.012;2023-03-25T02:44:47;98655.03;;;5.65;100.00
19600;BME280;9947;57.722;12.012;2023-03-25T02:47:19;98657.44;;;5.68;100.00
19600;BME280;9947;57.722;12.012;2023-03-25T02:49:53;98650.13;;;5.70;100.00
19600;BME280;9947;57.722;12.012;2023-03-25T02:52:24;98652.94;;;5.69;100.00
19600;BME280;9947;57.722;12.012;2023-03-25T02:54:57;98653.78;;;5.69;100.00
19600;BME280;9947;57.722;12.012;2023-03-25T02:57:31;98632.63;;;5.66;100.00
19600;BME280;9947;57.722;12.012;2023-03-25T03:00:04;98635.28;;;5.66;100.00
19600;BME280;9947;57.722;12.012;2023-03-25T03:02:39;98629.94;;;5.66;100.00
19600;BME280;9947;57.722;12.012;2023-03-25T03:05:23;98632.63;;;5.66;100.00
19600;BME280;9947;57.722;12.012;2023-03-25T03:07:58;98636.47;;;5.73;100.00
19600;BME280;9947;57.722;12.012;2023-03-25T03:10:38;98637.84;;;5.68;100.00
19600;BME280;9947;57.722;12.012;2023-03-25T03:13:17;98650.25;;;5.69;100.00
19600;BME280;9947;57.722;12.012;2023-03-25T03:15:53;98640.09;;;5.72;100.00
19600;BME280;9947;57.722;12.012;2023-03-25T03:18:32;98638.28;;;5.73;100.00
19600;BME280;9947;57.722;12.012;2023-03-25T03:21:08;98641.50;;;5.67;100.00
19600;BME280;9947;57.722;12.012;2023-03-25T03:23:46;98638.41;;;5.71;100.00
19600;BME280;9947;57.722;12.012;2023-03-25T03:26:24;98648.69;;;5.66;100.00
19600;BME280;9947;57.722;12.012;2023-03-25T03:28:56;98658.00;;;5.52;100.00
19600;BME280;9947;57.722;12.012;2023-03-25T03:31:30;98647.28;;;5.52;100.00
19600;BME280;9947;57.722;12.012;2023-03-25T03:34:07;98647.94;;;5.45;100.00
19600;BME280;9947;57.722;12.012;2023-03-25T03:36:40;98647.34;;;5.41;100.00
19600;BME280;9947;57.722;12.012;2023-03-25T03:39:15;98634.94;;;5.40;100.00
19600;BME280;9947;57.722;12.012;2023-03-25T03:41:50;98624.50;;;5.37;100.00
19600;BME280;9947;57.722;12.012;2023-03-25T03:44:26;98632.94;;;5.33;100.00
19600;BME280;9947;57.722;12.012;2023-03-25T03:46:58;98622.78;;;5.26;100.00
19600;BME280;9947;57.722;12.012;2023-03-25T03:49:28;98625.59;;;5.25;100.00
19600;BME280;9947;57.722;12.012;2023-03-25T03:52:05;98628.16;;;5.26;100.00
19600;BME280;9947;57.722;12.012;2023-03-25T03:54:39;98631.47;;;5.19;100.00
19600;BME280;9947;57.722;12.012;2023-03-25T03:57:20;98637.56;;;5.21;100.00
19600;BME280;9947;57.722;12.012;2023-03-25T03:59:52;98627.16;;;5.28;100.00
19600;BME280;9947;57.722;12.012;2023-03-25T04:02:26;98636.03;;;5.28;100.00
19600;BME280;9947;57.722;12.012;2023-03-25T04:05:04;98639.28;;;5.22;100.00
19600;BME280;9947;57.722;12.012;2023-03-25T04:07:33;98640.56;;;5.28;100.00
19600;BME280;9947;57.722;12.012;2023-03-25T04:10:08;98638.84;;;5.26;100.00
19600;BME280;9947;57.722;12.012;2023-03-25T04:12:47;98631.81;;;5.25;100.00
19600;BME280;9947;57.722;12.012;2023-03-25T04:15:17;98622.25;;;5.33;100.00
19600;BME280;9947;57.722;12.012;2023-03-25T04:17:46;98628.84;;;5.29;100.00
19600;BME280;9947;57.722;12.012;2023-03-25T04:20:15;98618.41;;;5.25;100.00
19600;BME280;9947;57.722;12.012;2023-03-25T04:22:48;98615.59;;;5.27;100.00
19600;BME280;9947;57.722;12.012;2023-03-25T04:25:22;98613.47;;;5.21;100.00
19600;BME280;9947;57.722;12.012;2023-03-25T04:27:54;98612.88;;;5.17;100.00
19600;BME280;9947;57.722;12.012;2023-03-25T04:30:23;98614.41;;;5.20;100.00
19600;BME280;9947;57.722;12.012;2023-03-25T04:32:57;98614.41;;;5.20;100.00
19600;BME280;9947;57.722;12.012;2023-03-25T04:35:31;98614.19;;;5.23;100.00
19600;BME280;9947;57.722;12.012;2023-03-25T04:38:01;98606.72;;;5.26;100.00
19600;BME280;9947;57.722;12.012;2023-03-25T04:40:28;98605.72;;;5.28;100.00
19600;BME280;9947;57.722;12.012;2023-03-25T04:42:56;98598.41;;;5.30;100.00
19600;BME280;9947;57.722;12.012;2023-03-25T04:45:26;98610.25;;;5.37;100.00
19600;BME280;9947;57.722;12.012;2023-03-25T04:47:55;98600.66;;;5.34;100.00
19600;BME280;9947;57.722;12.012;2023-03-25T04:50:24;98598.13;;;5.42;100.00
19600;BME280;9947;57.722;12.012;2023-03-25T04:52:52;98607.44;;;5.38;100.00
19600;BME280;9947;57.722;12.012;2023-03-25T04:55:22;98607.72;;;5.45;100.00
19600;BME280;9947;57.722;12.012;2023-03-25T04:57:51;98601.28;;;5.47;100.00
19600;BME280;9947;57.722;12.012;2023-03-25T05:00:22;98588.97;;;5.45;100.00
19600;BME280;9947;57.722;12.012;2023-03-25T05:02:50;98585.59;;;5.43;100.00
19600;BME280;9947;57.722;12.012;2023-03-25T05:05:20;98582.19;;;5.41;100.00
19600;BME280;9947;57.722;12.012;2023-03-25T05:07:51;98583.63;;;5.45;100.00
19600;BME280;9947;57.722;12.012;2023-03-25T05:10:21;98591.41;;;5.48;100.00
19600;BME280;9947;57.722;12.012;2023-03-25T05:12:57;98586.75;;;5.50;100.00
19600;BME280;9947;57.722;12.012;2023-03-25T05:15:29;98591.13;;;5.51;100.00
19600;BME280;9947;57.722;12.012;2023-03-25T05:17:59;98607.50;;;5.57;100.00
19600;BME280;9947;57.722;12.012;2023-03-25T05:20:27;98612.44;;;5.52;100.00
19600;BME280;9947;57.722;12.012;2023-03-25T05:22:59;98607.06;;;5.52;100.00
19600;BME280;9947;57.722;12.012;2023-03-25T05:25:26;98622.88;;;5.55;100.00
19600;BME280;9947;57.722;12.012;2023-03-25T05:27:53;98629.22;;;5.54;100.00
19600;BME280;9947;57.722;12.012;2023-03-25T05:30:28;98624.28;;;5.50;100.00
19600;BME280;9947;57.722;12.012;2023-03-25T05:32:57;98627.34;;;5.45;100.00
19600;BME280;9947;57.722;12.012;2023-03-25T05:35:24;98616.31;;;5.39;100.00
19600;BME280;9947;57.722;12.012;2023-03-25T05:37:53;98612.81;;;5.38;100.00
19600;BME280;9947;57.722;12.012;2023-03-25T05:40:22;98616.31;;;5.39;100.00
19600;BME280;9947;57.722;12.012;2023-03-25T05:42:50;98612.09;;;5.36;100.00
19600;BME280;9947;57.722;12.012;2023-03-25T05:45:19;98622.66;;;5.38;100.00
19600;BME280;9947;57.722;12.012;2023-03-25T05:47:47;98618.56;;;5.34;100.00
19600;BME280;9947;57.722;12.012;2023-03-25T05:50:18;98599.97;;;5.32;100.00
19600;BME280;9947;57.722;12.012;2023-03-25T05:52:49;98610.69;;;5.32;100.00
19600;BME280;9947;57.722;12.012;2023-03-25T05:55:21;98619.41;;;5.34;100.00
19600;BME280;9947;57.722;12.012;2023-03-25T05:57:50;98636.34;;;5.35;100.00
19600;BME280;9947;57.722;12.012;2023-03-25T06:00:19;98644.81;;;5.40;100.00
19600;BME280;9947;57.722;12.012;2023-03-25T06:02:48;98647.34;;;5.32;100.00
19600;BME280;9947;57.722;12.012;2023-03-25T06:05:15;98635.34;;;5.36;100.00
19600;BME280;9947;57.722;12.012;2023-03-25T06:07:54;98632.09;;;5.32;100.00
19600;BME280;9947;57.722;12.012;2023-03-25T06:10:23;98639.44;;;5.30;100.00
19600;BME280;9947;57.722;12.012;2023-03-25T06:12:50;98639.44;;;5.30;100.00
19600;BME280;9947;57.722;12.012;2023-03-25T06:15:18;98636.19;;;5.36;100.00
19600;BME280;9947;57.722;12.012;2023-03-25T06:17:54;98640.63;;;5.47;100.00
19600;BME280;9947;57.722;12.012;2023-03-25T06:20:21;98641.00;;;5.42;100.00
19600;BME280;9947;57.722;12.012;2023-03-25T06:22:48;98651.22;;;5.48;100.00
19600;BME280;9947;57.722;12.012;2023-03-25T06:25:17;98644.03;;;5.58;100.00
19600;BME280;9947;57.722;12.012;2023-03-25T06:27:46;98640.63;;;5.47;100.00
19600;BME280;9947;57.722;12.012;2023-03-25T06:30:17;98643.59;;;5.53;100.00
19600;BME280;9947;57.722;12.012;2023-03-25T06:32:45;98646.28;;;5.53;100.00
19600;BME280;9947;57.722;12.012;2023-03-25T06:35:18;98647.84;;;5.66;100.00
19600;BME280;9947;57.722;12.012;2023-03-25T06:37:52;98643.34;;;5.66;100.00
19600;BME280;9947;57.722;12.012;2023-03-25T06:40:19;98645.78;;;5.88;100.00
19600;BME280;9947;57.722;12.012;2023-03-25T06:42:46;98636.88;;;5.88;100.00
19600;BME280;9947;57.722;12.012;2023-03-25T06:45:15;98634.22;;;5.88;100.00
19600;BME280;9947;57.722;12.012;2023-03-25T06:47:45;98634.13;;;5.99;100.00
19600;BME280;9947;57.722;12.012;2023-03-25T06:50:16;98633.53;;;5.96;100.00
19600;BME280;9947;57.722;12.012;2023-03-25T06:52:44;98641.88;;;6.12;100.00
19600;BME280;9947;57.722;12.012;2023-03-25T06:55:11;98645.00;;;6.17;100.00
19600;BME280;9947;57.722;12.012;2023-03-25T06:57:38;98652.22;;;6.26;100.00
19600;BME280;9947;57.722;12.012;2023-03-25T07:00:10;98645.72;;;6.29;100.00
19600;BME280;9947;57.722;12.012;2023-03-25T07:02:37;98648.69;;;6.26;100.00
19600;BME280;9947;57.722;12.012;2023-03-25T07:05:05;98648.38;;;6.38;100.00
19600;BME280;9947;57.722;12.012;2023-03-25T07:07:36;98656.84;;;6.43;100.00
19600;BME280;9947;57.722;12.012;2023-03-25T07:10:03;98655.72;;;6.36;100.00
19600;BME280;9947;57.722;12.012;2023-03-25T07:12:32;98652.91;;;6.38;100.00
19600;BME280;9947;57.722;12.012;2023-03-25T07:14:59;98648.38;;;6.38;100.00
19600;BME280;9947;57.722;12.012;2023-03-25T07:17:26;98653.06;;;6.36;100.00
19600;BME280;9947;57.722;12.012;2023-03-25T07:19:54;98659.94;;;6.48;100.00
19600;BME280;9947;57.722;12.012;2023-03-25T07:22:28;98663.38;;;6.51;100.00
19600;BME280;9947;57.722;12.012;2023-03-25T07:24:57;98663.31;;;6.79;100.00
19600;BME280;9947;57.722;12.012;2023-03-25T07:27:24;98676.59;;;6.81;100.00
19600;BME280;9947;57.722;12.012;2023-03-25T07:29:51;98671.53;;;6.68;100.00
19600;BME280;9947;57.722;12.012;2023-03-25T07:32:20;98663.47;;;6.68;100.00
19600;BME280;9947;57.722;12.012;2023-03-25T07:34:49;98673.50;;;6.66;100.00
19600;BME280;9947;57.722;12.012;2023-03-25T07:37:19;98674.31;;;6.76;100.00
19600;BME280;9947;57.722;12.012;2023-03-25T07:39:49;98675.69;;;7.00;100.00
19600;BME280;9947;57.722;12.012;2023-03-25T07:42:19;98683.31;;;7.14;100.00
19600;BME280;9947;57.722;12.012;2023-03-25T07:44:46;98683.13;;;7.25;100.00
19600;BME280;9947;57.722;12.012;2023-03-25T07:47:13;98683.06;;;7.45;100.00
19600;BME280;9947;57.722;12.012;2023-03-25T07:49:47;98681.75;;;7.58;100.00
19600;BME280;9947;57.722;12.012;2023-03-25T07:52:14;98691.06;;;7.54;100.00
19600;BME280;9947;57.722;12.012;2023-03-25T07:54:44;98694.28;;;7.67;100.00
19600;BME280;9947;57.722;12.012;2023-03-25T07:57:12;98688.69;;;7.51;100.00
19600;BME280;9947;57.722;12.012;2023-03-25T07:59:40;98691.97;;;7.72;100.00
19600;BME280;9947;57.722;12.012;2023-03-25T08:02:08;98701.13;;;7.80;100.00
19600;BME280;9947;57.722;12.012;2023-03-25T08:04:35;98699.22;;;7.72;100.00
19600;BME280;9947;57.722;12.012;2023-03-25T08:07:02;98706.50;;;7.52;100.00
19600;BME280;9947;57.722;12.012;2023-03-25T08:09:30;98695.28;;;7.66;100.00
19600;BME280;9947;57.722;12.012;2023-03-25T08:11:59;98697.38;;;7.72;100.00
19600;BME280;9947;57.722;12.012;2023-03-25T08:14:28;98704.88;;;7.41;100.00
19600;BME280;9947;57.722;12.012;2023-03-25T08:16:56;98695.56;;;7.63;100.00
19600;BME280;9947;57.722;12.012;2023-03-25T08:19:24;98707.28;;;7.72;100.00
19600;BME280;9947;57.722;12.012;2023-03-25T08:21:57;98706.19;;;7.65;100.00
19600;BME280;9947;57.722;12.012;2023-03-25T08:24:24;98704.44;;;7.73;100.00
19600;BME280;9947;57.722;12.012;2023-03-25T08:26:52;98711.72;;;7.63;100.00
19600;BME280;9947;57.722;12.012;2023-03-25T08:29:19;98725.34;;;7.80;100.00
19600;BME280;9947;57.722;12.012;2023-03-25T08:31:46;98708.66;;;8.03;100.00
19600;BME280;9947;57.722;12.012;2023-03-25T08:34:19;98717.16;;;8.26;100.00
19600;BME280;9947;57.722;12.012;2023-03-25T08:36:47;98714.78;;;8.23;100.00
19600;BME280;9947;57.722;12.012;2023-03-25T08:39:29;98716.44;;;8.34;100.00
19600;BME280;9947;57.722;12.012;2023-03-25T08:42:01;98713.00;;;8.14;100.00
19600;BME280;9947;57.722;12.012;2023-03-25T08:44:32;98714.38;;;8.18;100.00
19600;BME280;9947;57.722;12.012;2023-03-25T08:47:00;98719.22;;;8.32;100.00
19600;BME280;9947;57.722;12.012;2023-03-25T08:49:29;98717.06;;;8.46;100.00
19600;BME280;9947;57.722;12.012;2023-03-25T08:51:58;98710.59;;;8.39;100.00
19600;BME280;9947;57.722;12.012;2023-03-25T08:54:29;98714.53;;;8.44;100.00
19600;BME280;9947;57.722;12.012;2023-03-25T08:57:13;98718.44;;;8.50;100.00
19600;BME280;9947;57.722;12.012;2023-03-25T08:59:39;98719.06;;;8.61;100.00
19600;BME280;9947;57.722;12.012;2023-03-25T09:02:08;98718.38;;;8.42;100.00
19600;BME280;9947;57.722;12.012;2023-03-25T09:04:39;98717.38;;;8.43;100.00
19600;BME280;9947;57.722;12.012;2023-03-25T09:07:08;98720.06;;;8.43;100.00
19600;BME280;9947;57.722;12.012;2023-03-25T09:09:36;98719.06;;;8.61;100.00
19600;BME280;9947;57.722;12.012;2023-03-25T09:12:05;98720.56;;;8.82;100.00
19600;BME280;9947;57.722;12.012;2023-03-25T09:14:34;98728.31;;;9.03;100.00
19600;BME280;9947;57.722;12.012;2023-03-25T09:17:01;98732.03;;;9.02;100.00
19600;BME280;9947;57.722;12.012;2023-03-25T09:19:32;98739.41;;;9.00;100.00
19600;BME280;9947;57.722;12.012;2023-03-25T09:22:01;98739.84;;;8.87;100.00
19600;BME280;9947;57.722;12.012;2023-03-25T09:24:35;98724.22;;;8.73;100.00
19600;BME280;9947;57.722;12.012;2023-03-25T09:27:03;98747.66;;;8.80;100.00
19600;BME280;9947;57.722;12.012;2023-03-25T09:29:33;98743.44;;;8.42;100.00
19600;BME280;9947;57.722;12.012;2023-03-25T09:32:00;98754.00;;;8.26;100.00
19600;BME280;9947;57.722;12.012;2023-03-25T09:34:30;98745.69;;;8.19;100.00
19600;BME280;9947;57.722;12.012;2023-03-25T09:36:58;98746.47;;;8.02;100.00
19600;BME280;9947;57.722;12.012;2023-03-25T09:39:27;98749.16;;;8.02;100.00
19600;BME280;9947;57.722;12.012;2023-03-25T09:42:04;98759.53;;;7.97;100.00
19600;BME280;9947;57.722;12.012;2023-03-25T09:44:39;98749.97;;;7.85;100.00
19600;BME280;9947;57.722;12.012;2023-03-25T09:47:16;98751.91;;;7.92;100.00
19600;BME280;9947;57.722;12.012;2023-03-25T09:49:47;98755.88;;;7.61;100.00
19600;BME280;9947;57.722;12.012;2023-03-25T09:52:24;98760.56;;;7.59;100.00
19600;BME280;9947;57.722;12.012;2023-03-25T09:54:58;98766.72;;;7.22;100.00
19600;BME280;9947;57.722;12.012;2023-03-25T09:57:30;98771.00;;;7.05;100.00
19600;BME280;9947;57.722;12.012;2023-03-25T10:00:14;98775.25;;;6.89;100.00
19600;BME280;9947;57.722;12.012;2023-03-25T10:02:44;98781.34;;;6.81;100.00
19600;BME280;9947;57.722;12.012;2023-03-25T10:05:37;98768.75;;;6.72;100.00
19600;BME280;9947;57.722;12.012;2023-03-25T10:08:12;98778.94;;;6.78;100.00
19600;BME280;9947;57.722;12.012;2023-03-25T10:10:48;98782.59;;;6.87;100.00
19600;BME280;9947;57.722;12.012;2023-03-25T10:13:39;98780.63;;;6.89;100.00
19600;BME280;9947;57.722;12.012;2023-03-25T10:16:20;98782.19;;;6.91;100.00
19600;BME280;9947;57.722;12.012;2023-03-25T10:18:55;98782.88;;;6.74;100.00
19600;BME280;9947;57.722;12.012;2023-03-25T10:21:31;98779.06;;;6.96;100.00
19600;BME280;9947;57.722;12.012;2023-03-25T10:24:13;98784.84;;;7.20;100.00
19600;BME280;9947;57.722;12.012;2023-03-25T10:26:47;98788.53;;;7.29;100.00
19600;BME280;9947;57.722;12.012;2023-03-25T10:29:18;98789.88;;;7.42;100.00
19600;BME280;9947;57.722;12.012;2023-03-25T10:31:50;98791.31;;;7.27;100.00
19600;BME280;9947;57.722;12.012;2023-03-25T10:34:24;98791.19;;;7.76;100.00
19600;BME280;9947;57.722;12.012;2023-03-25T10:36:57;98787.97;;;7.72;100.00
19600;BME280;9947;57.722;12.012;2023-03-25T10:39:28;98795.66;;;7.57;100.00
19600;BME280;9947;57.722;12.012;2023-03-25T10:42:15;98799.41;;;7.74;100.00
19600;BME280;9947;57.722;12.012;2023-03-25T10:44:50;98795.28;;;7.80;100.00
19600;BME280;9947;57.722;12.012;2023-03-25T10:47:19;98793.22;;;7.64;100.00
19600;BME280;9947;57.722;12.012;2023-03-25T10:49:50;98803.53;;;8.05;100.00
19600;BME280;9947;57.722;12.012;2023-03-25T10:52:19;98809.22;;;8.40;100.00
19600;BME280;9947;57.722;12.012;2023-03-25T10:54:50;98803.97;;;8.28;100.00
19600;BME280;9947;57.722;12.012;2023-03-25T10:57:24;98801.13;;;8.12;100.00
19600;BME280;9947;57.722;12.012;2023-03-25T10:59:58;98801.75;;;8.33;100.00
19600;BME280;9947;57.722;12.012;2023-03-25T11:02:33;98802.69;;;8.32;100.00
19600;BME280;9947;57.722;12.012;2023-03-25T11:05:06;98806.31;;;8.51;100.00
19600;BME280;9947;57.722;12.012;2023-03-25T11:07:35;98807.53;;;8.39;100.00
19600;BME280;9947;57.722;12.012;2023-03-25T11:10:09;98799.81;;;8.16;100.00
19600;BME280;9947;57.722;12.012;2023-03-25T11:12:39;98801.69;;;8.43;100.00
19600;BME280;9947;57.722;12.012;2023-03-25T11:15:15;98799.06;;;8.51;100.00
19600;BME280;9947;57.722;12.012;2023-03-25T11:17:45;98795.72;;;8.85;100.00
19600;BME280;9947;57.722;12.012;2023-03-25T11:20:25;98791.47;;;8.82;100.00
19600;BME280;9947;57.722;12.012;2023-03-25T11:22:53;98795.00;;;9.01;100.00
19600;BME280;9947;57.722;12.012;2023-03-25T11:25:29;98791.84;;;9.23;100.00
19600;BME280;9947;57.722;12.012;2023-03-25T11:28:02;98801.50;;;9.34;100.00
19600;BME280;9947;57.722;12.012;2023-03-25T11:30:31;98807.66;;;9.00;100.00
19600;BME280;9947;57.722;12.012;2023-03-25T11:33:01;98804.78;;;8.66;100.00
19600;BME280;9947;57.722;12.012;2023-03-25T11:35:30;98820.63;;;8.51;100.00
19600;BME280;9947;57.722;12.012;2023-03-25T11:38:00;98806.16;;;8.52;100.00
19600;BME280;9947;57.722;12.012;2023-03-25T11:40:29;98817.34;;;8.75;100.00
19600;BME280;9947;57.722;12.012;2023-03-25T11:43:01;98816.75;;;8.54;100.00
19600;BME280;9947;57.722;12.012;2023-03-25T11:45:32;98821.94;;;8.83;100.00
19600;BME280;9947;57.722;12.012;2023-03-25T11:48:01;98812.03;;;8.83;100.00
19600;BME280;9947;57.722;12.012;2023-03-25T11:50:36;98811.34;;;9.17;100.00
19600;BME280;9947;57.722;12.012;2023-03-25T11:53:03;98802.34;;;9.34;100.00
19600;BME280;9947;57.722;12.012;2023-03-25T11:55:40;98812.72;;;9.65;100.00
19600;BME280;9947;57.722;12.012;2023-03-25T11:58:16;98821.91;;;10.14;100.00
19600;BME280;9947;57.722;12.012;2023-03-25T12:00:47;98815.44;;;9.47;100.00
19600;BME280;9947;57.722;12.012;2023-03-25T12:03:18;98819.13;;;9.64;100.00
19600;BME280;9947;57.722;12.012;2023-03-25T12:05:57;98807.84;;;9.68;100.00
19600;BME280;9947;57.722;12.012;2023-03-25T12:08:28;98812.88;;;9.37;100.00
19600;BME280;9947;57.722;12.012;2023-03-25T12:11:06;98806.94;;;9.59;100.00
19600;BME280;9947;57.722;12.012;2023-03-25T12:13:56;98818.78;;;9.93;100.00
19600;BME280;9947;57.722;12.012;2023-03-25T12:16:31;98814.09;;;9.69;100.00
19600;BME280;9947;57.722;12.012;2023-03-25T12:19:11;98814.34;;;9.57;100.00
19600;BME280;9947;57.722;12.012;2023-03-25T12:21:56;98813.78;;;9.28;100.00
19600;BME280;9947;57.722;12.012;2023-03-25T12:24:36;98809.38;;;9.45;100.00
19600;BME280;9947;57.722;12.012;2023-03-25T12:27:18;98819.38;;;9.78;100.00
19600;BME280;9947;57.722;12.012;2023-03-25T12:29:54;98809.75;;;10.10;100.00
19600;BME280;9947;57.722;12.012;2023-03-25T12:32:31;98807.03;;;10.02;100.00
19600;BME280;9947;57.722;12.012;2023-03-25T12:35:16;98811.06;;;10.32;100.00
19600;BME280;9947;57.722;12.012;2023-03-25T12:38:03;98809.13;;;10.50;100.00
19600;BME280;9947;57.722;12.012;2023-03-25T12:40:49;98803.13;;;10.30;100.00
19600;BME280;9947;57.722;12.012;2023-03-25T12:43:24;98798.56;;;10.23;100.00
19600;BME280;9947;57.722;12.012;2023-03-25T12:46:20;98800.16;;;10.49;100.00
19600;BME280;9947;57.722;12.012;2023-03-25T12:48:59;98805.47;;;9.91;100.00
19600;BME280;9947;57.722;12.012;2023-03-25T12:51:39;98805.38;;;9.83;100.00
19600;BME280;9947;57.722;12.012;2023-03-25T12:54:21;98811.28;;;9.78;100.00
19600;BME280;9947;57.722;12.012;2023-03-25T12:56:58;98811.53;;;9.93;100.00
19600;BME280;9947;57.722;12.012;2023-03-25T12:59:55;98805.63;;;9.64;100.00
19600;BME280;9947;57.722;12.012;2023-03-25T13:02:37;98807.38;;;9.73;100.00
19600;BME280;9947;57.722;12.012;2023-03-25T13:05:16;98812.56;;;9.22;100.00
19600;BME280;9947;57.722;12.012;2023-03-25T13:07:49;98813.25;;;9.07;100.00
19600;BME280;9947;57.722;12.012;2023-03-25T13:10:19;98808.34;;;9.02;100.00
19600;BME280;9947;57.722;12.012;2023-03-25T13:13:11;98816.34;;;9.12;100.00
19600;BME280;9947;57.722;12.012;2023-03-25T13:15:43;98816.72;;;9.17;100.00
19600;BME280;9947;57.722;12.012;2023-03-25T13:18:16;98811.13;;;8.92;100.00
19600;BME280;9947;57.722;12.012;2023-03-25T13:20:48;98814.44;;;8.86;100.00
19600;BME280;9947;57.722;12.012;2023-03-25T13:23:22;98813.78;;;8.75;100.00
19600;BME280;9947;57.722;12.012;2023-03-25T13:25:54;98814.97;;;8.90;100.00
19600;BME280;9947;57.722;12.012;2023-03-25T13:28:25;98814.72;;;8.83;100.00
19600;BME280;9947;57.722;12.012;2023-03-25T13:30:55;98822.34;;;8.70;100.00